sensor_id;sensor_type;location;lat;lon;timestamp;P1;P2;P0
62846;PMS5003;49477;35.676;139.586;2023-07-20T00:00:45;7;7;
62846;PMS5003;49477;35.676;139.586;2023-07-20T00:03:15;7;7;
62846;PMS5003;49477;35.676;139.586;2023-07-20T00:05:44;5;5;
62846;PMS5003;49477;35.676;139.586;2023-07-20T00:08:13;6;6;
62846;PMS5003;49477;35.676;139.586;2023-07-20T00:10:44;5;5;
62846;PMS5003;49477;35.676;139.586;2023-07-20T00:13:14;6;6;
62846;PMS5003;49477;35.676;139.586;2023-07-20T00:15:43;5;5;
62846;PMS5003;49477;35.676;139.586;2023-07-20T00:18:13;6;6;
62846;PMS5003;49477;35.676;139.586;2023-07-20T00:20:44;7;5;
62846;PMS5003;49477;35.676;139.586;2023-07-20T00:23:14;6;6;
62846;PMS5003;49477;35.676;139.586;2023-07-20T00:25:43;6;5;
62846;PMS5003;49477;35.676;139.586;2023-07-20T00:28:14;6;5;
62846;PMS5003;49477;35.676;139.586;2023-07-20T00:30:43;4;4;
62846;PMS5003;49477;35.676;139.586;2023-07-20T00:33:16;6;6;
62846;PMS5003;49477;35.676;139.586;2023-07-20T00:35:46;5;5;
62846;PMS5003;49477;35.676;139.586;2023-07-20T00:38:16;5;5;
62846;PMS5003;49477;35.676;139.586;2023-07-20T00:40:46;8;6;
62846;PMS5003;49477;35.676;139.586;2023-07-20T00:43:16;4;4;
62846;PMS5003;49477;35.676;139.586;2023-07-20T00:45:45;6;5;
62846;PMS5003;49477;35.676;139.586;2023-07-20T00:48:16;5;5;
62846;PMS5003;49477;35.676;139.586;2023-07-20T00:50:47;7;7;
62846;PMS5003;49477;35.676;139.586;2023-07-20T00:53:17;5;5;
62846;PMS5003;49477;35.676;139.586;2023-07-20T00:55:47;4;4;
62846;PMS5003;49477;35.676;139.586;2023-07-20T00:58:18;7;7;
62846;PMS5003;49477;35.676;139.586;2023-07-20T01:00:48;8;6;
62846;PMS5003;49477;35.676;139.586;2023-07-20T01:03:19;5;5;
62846;PMS5003;49477;35.676;139.586;2023-07-20T01:05:51;4;4;
62846;PMS5003;49477;35.676;139.586;2023-07-20T01:08:31;5;3;
62846;PMS5003;49477;35.676;139.586;2023-07-20T01:11:09;4;4;
62846;PMS5003;49477;35.676;139.586;2023-07-20T01:13:43;6;6;
62846;PMS5003;49477;35.676;139.586;2023-07-20T01:16:13;8;8;
62846;PMS5003;49477;35.676;139.586;2023-07-20T01:18:43;8;6;
62846;PMS5003;49477;35.676;139.586;2023-07-20T01:21:13;7;7;
62846;PMS5003;49477;35.676;139.586;2023-07-20T01:24:56;7;6;
62846;PMS5003;49477;35.676;139.586;2023-07-20T01:28:17;4;4;
62846;PMS5003;49477;35.676;139.586;2023-07-20T01:31:20;5;5;
62846;PMS5003;49477;35.676;139.586;2023-07-20T01:33:52;4;4;
62846;PMS5003;49477;35.676;139.586;2023-07-20T01:36:24;6;6;
62846;PMS5003;49477;35.676;139.586;2023-07-20T01:38:56;6;5;
62846;PMS5003;49477;35.676;139.586;2023-07-20T01:41:26;5;5;
62846;PMS5003;49477;35.676;139.586;2023-07-20T01:43:57;4;4;
62846;PMS5003;49477;35.676;139.586;2023-07-20T01:46:26;4;4;
62846;PMS5003;49477;35.676;139.586;2023-07-20T01:48:56;8;5;
62846;PMS5003;49477;35.676;139.586;2023-07-20T01:51:32;5;5;
62846;PMS5003;49477;35.676;139.586;2023-07-20T01:54:02;7;7;
62846;PMS5003;49477;35.676;139.586;2023-07-20T01:56:31;4;4;
62846;PMS5003;49477;35.676;139.586;2023-07-20T01:59:01;4;4;
62846;PMS5003;49477;35.676;139.586;2023-07-20T02:01:30;5;5;
62846;PMS5003;49477;35.676;139.586;2023-07-20T02:04:00;3;3;
62846;PMS5003;49477;35.676;139.586;2023-07-20T02:06:30;8;6;
62846;PMS5003;49477;35.676;139.586;2023-07-20T02:08:59;6;6;
62846;PMS5003;49477;35.676;139.586;2023-07-20T02:11:30;9;5;
62846;PMS5003;49477;35.676;139.586;2023-07-20T02:13:59;6;3;
62846;PMS5003;49477;35.676;139.586;2023-07-20T02:16:28;3;3;
62846;PMS5003;49477;35.676;139.586;2023-07-20T02:18:58;2;2;
62846;PMS5003;49477;35.676;139.586;2023-07-20T02:21:27;3;3;
62846;PMS5003;49477;35.676;139.586;2023-07-20T02:23:57;4;4;
62846;PMS5003;49477;35.676;139.586;2023-07-20T02:26:26;4;4;
62846;PMS5003;49477;35.676;139.586;2023-07-20T02:28:56;4;4;
62846;PMS5003;49477;35.676;139.586;2023-07-20T02:31:25;3;3;
62846;PMS5003;49477;35.676;139.586;2023-07-20T02:33:55;4;4;
62846;PMS5003;49477;35.676;139.586;2023-07-20T02:36:25;4;4;
62846;PMS5003;49477;35.676;139.586;2023-07-20T02:38:54;6;6;
62846;PMS5003;49477;35.676;139.586;2023-07-20T02:41:24;5;4;
62846;PMS5003;49477;35.676;139.586;2023-07-20T02:43:53;3;3;
62846;PMS5003;49477;35.676;139.586;2023-07-20T02:46:23;4;4;
62846;PMS5003;49477;35.676;139.586;2023-07-20T02:48:52;5;5;
62846;PMS5003;49477;35.676;139.586;2023-07-20T02:51:22;5;5;
62846;PMS5003;49477;35.676;139.586;2023-07-20T02:53:51;4;4;
62846;PMS5003;49477;35.676;139.586;2023-07-20T02:56:21;6;6;
62846;PMS5003;49477;35.676;139.586;2023-07-20T02:58:50;4;4;
62846;PMS5003;49477;35.676;139.586;2023-07-20T03:01:20;5;5;
62846;PMS5003;49477;35.676;139.586;2023-07-20T03:03:49;2;2;
62846;PMS5003;49477;35.676;139.586;2023-07-20T03:06:19;5;5;
62846;PMS5003;49477;35.676;139.586;2023-07-20T03:08:48;2;2;
62846;PMS5003;49477;35.676;139.586;2023-07-20T03:11:18;6;6;
62846;PMS5003;49477;35.676;139.586;2023-07-20T03:13:48;4;3;
62846;PMS5003;49477;35.676;139.586;2023-07-20T03:16:18;5;5;
62846;PMS5003;49477;35.676;139.586;2023-07-20T03:18:48;4;4;
62846;PMS5003;49477;35.676;139.586;2023-07-20T03:21:18;7;6;
62846;PMS5003;49477;35.676;139.586;2023-07-20T03:23:47;5;5;
62846;PMS5003;49477;35.676;139.586;2023-07-20T03:26:19;4;4;
62846;PMS5003;49477;35.676;139.586;2023-07-20T03:28:48;6;5;
62846;PMS5003;49477;35.676;139.586;2023-07-20T03:31:17;5;5;
62846;PMS5003;49477;35.676;139.586;2023-07-20T03:33:47;5;5;
62846;PMS5003;49477;35.676;139.586;2023-07-20T03:36:17;10;8;
62846;PMS5003;49477;35.676;139.586;2023-07-20T03:38:46;7;7;
62846;PMS5003;49477;35.676;139.586;2023-07-20T03:41:16;6;6;
62846;PMS5003;49477;35.676;139.586;2023-07-20T03:43:46;6;6;
62846;PMS5003;49477;35.676;139.586;2023-07-20T03:46:16;6;6;
62846;PMS5003;49477;35.676;139.586;2023-07-20T03:48:45;7;7;
62846;PMS5003;49477;35.676;139.586;2023-07-20T03:51:14;8;8;
62846;PMS5003;49477;35.676;139.586;2023-07-20T03:53:44;8;7;
62846;PMS5003;49477;35.676;139.586;2023-07-20T03:56:14;6;6;
62846;PMS5003;49477;35.676;139.586;2023-07-20T03:58:43;9;9;
62846;PMS5003;49477;35.676;139.586;2023-07-20T04:01:13;7;7;
62846;PMS5003;49477;35.676;139.586;2023-07-20T04:03:42;9;7;
62846;PMS5003;49477;35.676;139.586;2023-07-20T04:06:12;8;8;
62846;PMS5003;49477;35.676;139.586;2023-07-20T04:08:41;8;6;
62846;PMS5003;49477;35.676;139.586;2023-07-20T04:11:11;6;6;
62846;PMS5003;49477;35.676;139.586;2023-07-20T04:13:41;6;6;
62846;PMS5003;49477;35.676;139.586;2023-07-20T04:16:10;7;7;
62846;PMS5003;49477;35.676;139.586;2023-07-20T04:18:39;9;7;
62846;PMS5003;49477;35.676;139.586;2023-07-20T04:21:09;7;7;
62846;PMS5003;49477;35.676;139.586;2023-07-20T04:23:39;7;7;
62846;PMS5003;49477;35.676;139.586;2023-07-20T04:26:08;5;5;
62846;PMS5003;49477;35.676;139.586;2023-07-20T04:28:38;6;6;
62846;PMS5003;49477;35.676;139.586;2023-07-20T04:31:10;5;5;
62846;PMS5003;49477;35.676;139.586;2023-07-20T04:33:40;4;4;
62846;PMS5003;49477;35.676;139.586;2023-07-20T04:36:11;4;4;
62846;PMS5003;49477;35.676;139.586;2023-07-20T04:38:41;6;5;
62846;PMS5003;49477;35.676;139.586;2023-07-20T04:41:11;4;4;
62846;PMS5003;49477;35.676;139.586;2023-07-20T04:43:41;5;5;
62846;PMS5003;49477;35.676;139.586;2023-07-20T04:46:12;5;5;
62846;PMS5003;49477;35.676;139.586;2023-07-20T04:48:41;7;5;
62846;PMS5003;49477;35.676;139.586;2023-07-20T04:51:10;6;6;
62846;PMS5003;49477;35.676;139.586;2023-07-20T04:53:42;4;4;
62846;PMS5003;49477;35.676;139.586;2023-07-20T04:56:13;7;6;
62846;PMS5003;49477;35.676;139.586;2023-07-20T04:58:42;8;6;
62846;PMS5003;49477;35.676;139.586;2023-07-20T05:01:12;6;6;
62846;PMS5003;49477;35.676;139.586;2023-07-20T05:03:41;4;4;
62846;PMS5003;49477;35.676;139.586;2023-07-20T05:06:11;6;4;
62846;PMS5003;49477;35.676;139.586;2023-07-20T05:08:40;6;6;
62846;PMS5003;49477;35.676;139.586;2023-07-20T05:11:12;5;5;
62846;PMS5003;49477;35.676;139.586;2023-07-20T05:13:41;5;3;
62846;PMS5003;49477;35.676;139.586;2023-07-20T05:16:11;4;4;
62846;PMS5003;49477;35.676;139.586;2023-07-20T05:18:40;7;5;
62846;PMS5003;49477;35.676;139.586;2023-07-20T05:21:13;3;3;
62846;PMS5003;49477;35.676;139.586;2023-07-20T05:23:42;4;4;
62846;PMS5003;49477;35.676;139.586;2023-07-20T05:26:11;5;5;
62846;PMS5003;49477;35.676;139.586;2023-07-20T05:28:41;3;3;
62846;PMS5003;49477;35.676;139.586;2023-07-20T05:31:10;4;4;
62846;PMS5003;49477;35.676;139.586;2023-07-20T05:33:41;5;4;
62846;PMS5003;49477;35.676;139.586;2023-07-20T05:36:11;3;3;
62846;PMS5003;49477;35.676;139.586;2023-07-20T05:38:41;6;5;
62846;PMS5003;49477;35.676;139.586;2023-07-20T05:41:10;6;5;
62846;PMS5003;49477;35.676;139.586;2023-07-20T05:43:40;3;3;
62846;PMS5003;49477;35.676;139.586;2023-07-20T05:46:09;4;4;
62846;PMS5003;49477;35.676;139.586;2023-07-20T05:48:44;5;5;
62846;PMS5003;49477;35.676;139.586;2023-07-20T05:51:13;7;7;
62846;PMS5003;49477;35.676;139.586;2023-07-20T05:53:42;4;4;
62846;PMS5003;49477;35.676;139.586;2023-07-20T05:56:13;6;5;
62846;PMS5003;49477;35.676;139.586;2023-07-20T05:58:42;4;4;
62846;PMS5003;49477;35.676;139.586;2023-07-20T06:01:17;4;4;
62846;PMS5003;49477;35.676;139.586;2023-07-20T06:03:46;3;3;
62846;PMS5003;49477;35.676;139.586;2023-07-20T06:06:17;7;7;
62846;PMS5003;49477;35.676;139.586;2023-07-20T06:08:47;3;3;
62846;PMS5003;49477;35.676;139.586;2023-07-20T06:11:17;6;6;
62846;PMS5003;49477;35.676;139.586;2023-07-20T06:13:47;8;5;
62846;PMS5003;49477;35.676;139.586;2023-07-20T06:16:17;4;4;
62846;PMS5003;49477;35.676;139.586;2023-07-20T06:18:46;6;5;
62846;PMS5003;49477;35.676;139.586;2023-07-20T06:21:15;6;6;
62846;PMS5003;49477;35.676;139.586;2023-07-20T06:23:46;4;4;
62846;PMS5003;49477;35.676;139.586;2023-07-20T06:26:15;5;4;
62846;PMS5003;49477;35.676;139.586;2023-07-20T06:28:45;4;4;
62846;PMS5003;49477;35.676;139.586;2023-07-20T06:31:14;3;3;
62846;PMS5003;49477;35.676;139.586;2023-07-20T06:33:44;5;4;
62846;PMS5003;49477;35.676;139.586;2023-07-20T06:36:19;5;5;
62846;PMS5003;49477;35.676;139.586;2023-07-20T06:38:55;3;3;
62846;PMS5003;49477;35.676;139.586;2023-07-20T06:41:25;3;3;
62846;PMS5003;49477;35.676;139.586;2023-07-20T06:43:54;3;3;
62846;PMS5003;49477;35.676;139.586;2023-07-20T06:46:28;5;5;
62846;PMS5003;49477;35.676;139.586;2023-07-20T06:48:58;6;6;
62846;PMS5003;49477;35.676;139.586;2023-07-20T06:51:27;4;4;
62846;PMS5003;49477;35.676;139.586;2023-07-20T06:53:57;4;4;
62846;PMS5003;49477;35.676;139.586;2023-07-20T06:56:26;4;4;
62846;PMS5003;49477;35.676;139.586;2023-07-20T06:58:56;5;5;
62846;PMS5003;49477;35.676;139.586;2023-07-20T07:01:26;6;5;
62846;PMS5003;49477;35.676;139.586;2023-07-20T07:03:55;3;3;
62846;PMS5003;49477;35.676;139.586;2023-07-20T07:06:25;3;3;
62846;PMS5003;49477;35.676;139.586;2023-07-20T07:08:54;5;4;
62846;PMS5003;49477;35.676;139.586;2023-07-20T07:11:23;4;4;
62846;PMS5003;49477;35.676;139.586;2023-07-20T07:13:53;5;5;
62846;PMS5003;49477;35.676;139.586;2023-07-20T07:16:22;5;5;
62846;PMS5003;49477;35.676;139.586;2023-07-20T07:18:52;4;3;
62846;PMS5003;49477;35.676;139.586;2023-07-20T07:21:21;4;4;
62846;PMS5003;49477;35.676;139.586;2023-07-20T07:23:56;5;5;
62846;PMS5003;49477;35.676;139.586;2023-07-20T07:26:26;4;4;
62846;PMS5003;49477;35.676;139.586;2023-07-20T07:28:56;6;4;
62846;PMS5003;49477;35.676;139.586;2023-07-20T07:31:25;5;5;
62846;PMS5003;49477;35.676;139.586;2023-07-20T07:33:56;3;3;
62846;PMS5003;49477;35.676;139.586;2023-07-20T07:36:25;3;3;
62846;PMS5003;49477;35.676;139.586;2023-07-20T07:38:55;5;5;
62846;PMS5003;49477;35.676;139.586;2023-07-20T07:41:24;5;5;
62846;PMS5003;49477;35.676;139.586;2023-07-20T07:43:54;4;4;
62846;PMS5003;49477;35.676;139.586;2023-07-20T07:46:23;4;4;
62846;PMS5003;49477;35.676;139.586;2023-07-20T07:48:53;4;4;
62846;PMS5003;49477;35.676;139.586;2023-07-20T07:51:23;4;4;
62846;PMS5003;49477;35.676;139.586;2023-07-20T07:53:52;4;3;
62846;PMS5003;49477;35.676;139.586;2023-07-20T07:56:22;3;3;
62846;PMS5003;49477;35.676;139.586;2023-07-20T07:58:51;5;5;
62846;PMS5003;49477;35.676;139.586;2023-07-20T08:01:21;5;4;
62846;PMS5003;49477;35.676;139.586;2023-07-20T08:03:50;4;4;
62846;PMS5003;49477;35.676;139.586;2023-07-20T08:06:20;3;3;
62846;PMS5003;49477;35.676;139.586;2023-07-20T08:08:49;6;5;
62846;PMS5003;49477;35.676;139.586;2023-07-20T08:11:20;3;3;
62846;PMS5003;49477;35.676;139.586;2023-07-20T08:13:50;5;5;
62846;PMS5003;49477;35.676;139.586;2023-07-20T08:16:20;4;4;
62846;PMS5003;49477;35.676;139.586;2023-07-20T08:18:50;4;4;
62846;PMS5003;49477;35.676;139.586;2023-07-20T08:21:22;3;3;
62846;PMS5003;49477;35.676;139.586;2023-07-20T08:23:51;5;5;
62846;PMS5003;49477;35.676;139.586;2023-07-20T08:26:28;5;5;
62846;PMS5003;49477;35.676;139.586;2023-07-20T08:28:57;5;5;
62846;PMS5003;49477;35.676;139.586;2023-07-20T08:31:27;4;4;
62846;PMS5003;49477;35.676;139.586;2023-07-20T08:33:56;3;3;
62846;PMS5003;49477;35.676;139.586;2023-07-20T08:36:27;3;3;
62846;PMS5003;49477;35.676;139.586;2023-07-20T08:38:56;3;3;
62846;PMS5003;49477;35.676;139.586;2023-07-20T08:41:26;4;4;
62846;PMS5003;49477;35.676;139.586;2023-07-20T08:43:55;5;5;
62846;PMS5003;49477;35.676;139.586;2023-07-20T08:46:26;5;5;
62846;PMS5003;49477;35.676;139.586;2023-07-20T08:48:56;7;5;
62846;PMS5003;49477;35.676;139.586;2023-07-20T08:51:32;5;5;
62846;PMS5003;49477;35.676;139.586;2023-07-20T08:54:03;7;5;
62846;PMS5003;49477;35.676;139.586;2023-07-20T08:56:33;4;4;
62846;PMS5003;49477;35.676;139.586;2023-07-20T08:59:03;5;5;
62846;PMS5003;49477;35.676;139.586;2023-07-20T09:01:32;4;4;
62846;PMS5003;49477;35.676;139.586;2023-07-20T09:04:02;6;4;
62846;PMS5003;49477;35.676;139.586;2023-07-20T09:06:31;4;4;
62846;PMS5003;49477;35.676;139.586;2023-07-20T09:09:02;4;4;
62846;PMS5003;49477;35.676;139.586;2023-07-20T09:11:31;5;5;
62846;PMS5003;49477;35.676;139.586;2023-07-20T09:14:05;4;4;
62846;PMS5003;49477;35.676;139.586;2023-07-20T09:16:46;5;5;
62846;PMS5003;49477;35.676;139.586;2023-07-20T09:19:17;6;5;
62846;PMS5003;49477;35.676;139.586;2023-07-20T09:21:48;4;4;
62846;PMS5003;49477;35.676;139.586;2023-07-20T09:24:18;8;6;
62846;PMS5003;49477;35.676;139.586;2023-07-20T09:26:48;3;3;
62846;PMS5003;49477;35.676;139.586;2023-07-20T09:29:18;5;5;
62846;PMS5003;49477;35.676;139.586;2023-07-20T09:31:59;4;4;
62846;PMS5003;49477;35.676;139.586;2023-07-20T09:34:28;4;4;
62846;PMS5003;49477;35.676;139.586;2023-07-20T09:36:58;4;4;
62846;PMS5003;49477;35.676;139.586;2023-07-20T09:39:28;3;3;
62846;PMS5003;49477;35.676;139.586;2023-07-20T09:42:00;5;4;
62846;PMS5003;49477;35.676;139.586;2023-07-20T09:44:30;5;5;
62846;PMS5003;49477;35.676;139.586;2023-07-20T09:46:59;3;3;
62846;PMS5003;49477;35.676;139.586;2023-07-20T09:49:30;4;4;
62846;PMS5003;49477;35.676;139.586;2023-07-20T09:52:00;3;3;
62846;PMS5003;49477;35.676;139.586;2023-07-20T09:54:31;4;4;
62846;PMS5003;49477;35.676;139.586;2023-07-20T09:57:00;5;5;
62846;PMS5003;49477;35.676;139.586;2023-07-20T09:59:31;4;4;
62846;PMS5003;49477;35.676;139.586;2023-07-20T10:02:01;3;3;
62846;PMS5003;49477;35.676;139.586;2023-07-20T10:04:33;4;4;
62846;PMS5003;49477;35.676;139.586;2023-07-20T10:07:05;4;4;
62846;PMS5003;49477;35.676;139.586;2023-07-20T10:09:39;2;2;
62846;PMS5003;49477;35.676;139.586;2023-07-20T10:12:11;4;4;
62846;PMS5003;49477;35.676;139.586;2023-07-20T10:14:44;4;3;
62846;PMS5003;49477;35.676;139.586;2023-07-20T10:17:21;5;5;
62846;PMS5003;49477;35.676;139.586;2023-07-20T10:19:54;3;3;
62846;PMS5003;49477;35.676;139.586;2023-07-20T10:22:28;5;5;
62846;PMS5003;49477;35.676;139.586;2023-07-20T10:25:03;3;3;
62846;PMS5003;49477;35.676;139.586;2023-07-20T10:27:34;5;5;
62846;PMS5003;49477;35.676;139.586;2023-07-20T10:30:06;5;5;
62846;PMS5003;49477;35.676;139.586;2023-07-20T10:32:36;3;3;
62846;PMS5003;49477;35.676;139.586;2023-07-20T10:35:12;8;5;
62846;PMS5003;49477;35.676;139.586;2023-07-20T10:37:50;6;4;
62846;PMS5003;49477;35.676;139.586;2023-07-20T10:40:25;4;4;
62846;PMS5003;49477;35.676;139.586;2023-07-20T10:42:57;6;5;
62846;PMS5003;49477;35.676;139.586;2023-07-20T10:45:37;4;4;
62846;PMS5003;49477;35.676;139.586;2023-07-20T10:48:15;3;3;
62846;PMS5003;49477;35.676;139.586;2023-07-20T10:53:40;3;3;
62846;PMS5003;49477;35.676;139.586;2023-07-20T10:56:12;6;5;
62846;PMS5003;49477;35.676;139.586;2023-07-20T10:58:43;4;4;
62846;PMS5003;49477;35.676;139.586;2023-07-20T11:01:13;3;3;
62846;PMS5003;49477;35.676;139.586;2023-07-20T11:03:48;4;4;
62846;PMS5003;49477;35.676;139.586;2023-07-20T11:06:33;6;6;
62846;PMS5003;49477;35.676;139.586;2023-07-20T11:09:04;8;6;
62846;PMS5003;49477;35.676;139.586;2023-07-20T11:11:36;7;7;
62846;PMS5003;49477;35.676;139.586;2023-07-20T11:14:07;4;4;
62846;PMS5003;49477;35.676;139.586;2023-07-20T11:16:39;5;5;
62846;PMS5003;49477;35.676;139.586;2023-07-20T11:19:16;7;7;
62846;PMS5003;49477;35.676;139.586;2023-07-20T11:21:50;4;4;
62846;PMS5003;49477;35.676;139.586;2023-07-20T11:24:21;5;5;
62846;PMS5003;49477;35.676;139.586;2023-07-20T11:26:51;6;5;
62846;PMS5003;49477;35.676;139.586;2023-07-20T11:29:22;9;7;
62846;PMS5003;49477;35.676;139.586;2023-07-20T11:31:52;7;5;
62846;PMS5003;49477;35.676;139.586;2023-07-20T11:34:20;6;5;
62846;PMS5003;49477;35.676;139.586;2023-07-20T11:36:51;6;6;
62846;PMS5003;49477;35.676;139.586;2023-07-20T11:39:21;5;5;
62846;PMS5003;49477;35.676;139.586;2023-07-20T11:41:51;6;6;
62846;PMS5003;49477;35.676;139.586;2023-07-20T11:44:23;5;4;
62846;PMS5003;49477;35.676;139.586;2023-07-20T11:47:00;7;7;
62846;PMS5003;49477;35.676;139.586;2023-07-20T11:49:30;8;5;
62846;PMS5003;49477;35.676;139.586;2023-07-20T11:52:05;6;6;
62846;PMS5003;49477;35.676;139.586;2023-07-20T11:54:37;6;5;
62846;PMS5003;49477;35.676;139.586;2023-07-20T11:57:07;6;5;
62846;PMS5003;49477;35.676;139.586;2023-07-20T11:59:53;6;6;
62846;PMS5003;49477;35.676;139.586;2023-07-20T12:02:22;6;5;
62846;PMS5003;49477;35.676;139.586;2023-07-20T12:04:54;7;7;
62846;PMS5003;49477;35.676;139.586;2023-07-20T12:07:26;6;6;
62846;PMS5003;49477;35.676;139.586;2023-07-20T12:10:03;4;4;
62846;PMS5003;49477;35.676;139.586;2023-07-20T12:12:35;6;6;
62846;PMS5003;49477;35.676;139.586;2023-07-20T12:15:15;5;5;
62846;PMS5003;49477;35.676;139.586;2023-07-20T12:17:50;8;7;
62846;PMS5003;49477;35.676;139.586;2023-07-20T12:20:28;7;7;
62846;PMS5003;49477;35.676;139.586;2023-07-20T12:23:00;8;7;
62846;PMS5003;49477;35.676;139.586;2023-07-20T12:25:36;6;4;
62846;PMS5003;49477;35.676;139.586;2023-07-20T12:28:07;8;6;
62846;PMS5003;49477;35.676;139.586;2023-07-20T12:30:39;9;6;
62846;PMS5003;49477;35.676;139.586;2023-07-20T12:33:10;8;8;
62846;PMS5003;49477;35.676;139.586;2023-07-20T12:35:40;7;6;
62846;PMS5003;49477;35.676;139.586;2023-07-20T12:38:10;8;8;
62846;PMS5003;49477;35.676;139.586;2023-07-20T12:40:40;7;7;
62846;PMS5003;49477;35.676;139.586;2023-07-20T12:43:10;7;7;
62846;PMS5003;49477;35.676;139.586;2023-07-20T12:45:40;7;7;
62846;PMS5003;49477;35.676;139.586;2023-07-20T12:48:09;8;8;
62846;PMS5003;49477;35.676;139.586;2023-07-20T12:50:39;7;7;
62846;PMS5003;49477;35.676;139.586;2023-07-20T12:53:08;10;9;
62846;PMS5003;49477;35.676;139.586;2023-07-20T12:55:39;10;10;
62846;PMS5003;49477;35.676;139.586;2023-07-20T12:58:09;9;9;
62846;PMS5003;49477;35.676;139.586;2023-07-20T13:00:39;15;13;
62846;PMS5003;49477;35.676;139.586;2023-07-20T13:03:09;17;14;
62846;PMS5003;49477;35.676;139.586;2023-07-20T13:05:40;15;12;
62846;PMS5003;49477;35.676;139.586;2023-07-20T13:08:10;12;12;
62846;PMS5003;49477;35.676;139.586;2023-07-20T13:10:41;9;9;
62846;PMS5003;49477;35.676;139.586;2023-07-20T13:13:13;12;12;
62846;PMS5003;49477;35.676;139.586;2023-07-20T13:15:42;12;12;
62846;PMS5003;49477;35.676;139.586;2023-07-20T13:18:12;12;8;
62846;PMS5003;49477;35.676;139.586;2023-07-20T13:20:41;12;12;
62846;PMS5003;49477;35.676;139.586;2023-07-20T13:23:13;10;10;
62846;PMS5003;49477;35.676;139.586;2023-07-20T13:25:43;10;10;
62846;PMS5003;49477;35.676;139.586;2023-07-20T13:28:13;11;10;
62846;PMS5003;49477;35.676;139.586;2023-07-20T13:30:43;11;8;
62846;PMS5003;49477;35.676;139.586;2023-07-20T13:33:12;15;11;
62846;PMS5003;49477;35.676;139.586;2023-07-20T13:35:42;13;11;
62846;PMS5003;49477;35.676;139.586;2023-07-20T13:38:11;12;9;
62846;PMS5003;49477;35.676;139.586;2023-07-20T13:40:41;9;9;
62846;PMS5003;49477;35.676;139.586;2023-07-20T13:43:10;9;9;
62846;PMS5003;49477;35.676;139.586;2023-07-20T13:45:40;10;10;
62846;PMS5003;49477;35.676;139.586;2023-07-20T13:48:09;12;9;
62846;PMS5003;49477;35.676;139.586;2023-07-20T13:50:39;8;8;
62846;PMS5003;49477;35.676;139.586;2023-07-20T13:53:08;9;9;
62846;PMS5003;49477;35.676;139.586;2023-07-20T13:55:38;10;10;
62846;PMS5003;49477;35.676;139.586;2023-07-20T13:58:08;6;6;
62846;PMS5003;49477;35.676;139.586;2023-07-20T14:00:39;8;7;
62846;PMS5003;49477;35.676;139.586;2023-07-20T14:03:11;9;9;
62846;PMS5003;49477;35.676;139.586;2023-07-20T14:05:40;8;8;
62846;PMS5003;49477;35.676;139.586;2023-07-20T14:08:10;11;10;
62846;PMS5003;49477;35.676;139.586;2023-07-20T14:10:40;12;12;
62846;PMS5003;49477;35.676;139.586;2023-07-20T14:13:09;9;9;
62846;PMS5003;49477;35.676;139.586;2023-07-20T14:15:39;13;12;
62846;PMS5003;49477;35.676;139.586;2023-07-20T14:18:10;9;9;
62846;PMS5003;49477;35.676;139.586;2023-07-20T14:20:40;13;13;
62846;PMS5003;49477;35.676;139.586;2023-07-20T14:23:12;10;10;
62846;PMS5003;49477;35.676;139.586;2023-07-20T14:25:46;18;12;
62846;PMS5003;49477;35.676;139.586;2023-07-20T14:28:16;13;13;
62846;PMS5003;49477;35.676;139.586;2023-07-20T14:30:47;11;11;
62846;PMS5003;49477;35.676;139.586;2023-07-20T14:33:17;15;14;
62846;PMS5003;49477;35.676;139.586;2023-07-20T14:35:48;15;15;
62846;PMS5003;49477;35.676;139.586;2023-07-20T14:38:18;15;15;
62846;PMS5003;49477;35.676;139.586;2023-07-20T14:40:47;18;18;
62846;PMS5003;49477;35.676;139.586;2023-07-20T14:43:17;15;13;
62846;PMS5003;49477;35.676;139.586;2023-07-20T14:45:47;18;16;
62846;PMS5003;49477;35.676;139.586;2023-07-20T14:48:16;20;19;
62846;PMS5003;49477;35.676;139.586;2023-07-20T14:50:47;20;19;
62846;PMS5003;49477;35.676;139.586;2023-07-20T14:53:18;20;16;
62846;PMS5003;49477;35.676;139.586;2023-07-20T14:55:49;20;17;
62846;PMS5003;49477;35.676;139.586;2023-07-20T14:58:19;14;13;
62846;PMS5003;49477;35.676;139.586;2023-07-20T15:00:49;12;12;
62846;PMS5003;49477;35.676;139.586;2023-07-20T15:03:18;13;13;
62846;PMS5003;49477;35.676;139.586;2023-07-20T15:05:48;20;17;
62846;PMS5003;49477;35.676;139.586;2023-07-20T15:08:19;16;16;
62846;PMS5003;49477;35.676;139.586;2023-07-20T15:10:49;18;17;
62846;PMS5003;49477;35.676;139.586;2023-07-20T15:13:19;21;17;
62846;PMS5003;49477;35.676;139.586;2023-07-20T15:15:49;19;17;
62846;PMS5003;49477;35.676;139.586;2023-07-20T15:18:20;18;17;
62846;PMS5003;49477;35.676;139.586;2023-07-20T15:20:50;21;19;
62846;PMS5003;49477;35.676;139.586;2023-07-20T15:23:20;21;18;
62846;PMS5003;49477;35.676;139.586;2023-07-20T15:25:50;19;18;
62846;PMS5003;49477;35.676;139.586;2023-07-20T15:28:19;21;19;
62846;PMS5003;49477;35.676;139.586;2023-07-20T15:30:50;20;19;
62846;PMS5003;49477;35.676;139.586;2023-07-20T15:33:27;25;20;
62846;PMS5003;49477;35.676;139.586;2023-07-20T15:35:57;18;18;
62846;PMS5003;49477;35.676;139.586;2023-07-20T15:38:27;16;16;
62846;PMS5003;49477;35.676;139.586;2023-07-20T15:40:57;17;16;
62846;PMS5003;49477;35.676;139.586;2023-07-20T15:43:26;21;18;
62846;PMS5003;49477;35.676;139.586;2023-07-20T15:46:07;20;17;
62846;PMS5003;49477;35.676;139.586;2023-07-20T15:49:14;15;15;
62846;PMS5003;49477;35.676;139.586;2023-07-20T15:51:46;15;14;
62846;PMS5003;49477;35.676;139.586;2023-07-20T15:54:16;14;13;
62846;PMS5003;49477;35.676;139.586;2023-07-20T15:56:49;19;17;
62846;PMS5003;49477;35.676;139.586;2023-07-20T15:59:18;14;14;
62846;PMS5003;49477;35.676;139.586;2023-07-20T16:01:49;14;12;
62846;PMS5003;49477;35.676;139.586;2023-07-20T16:04:19;14;13;
62846;PMS5003;49477;35.676;139.586;2023-07-20T16:06:51;10;10;
62846;PMS5003;49477;35.676;139.586;2023-07-20T16:09:20;13;10;
62846;PMS5003;49477;35.676;139.586;2023-07-20T16:11:49;11;11;
62846;PMS5003;49477;35.676;139.586;2023-07-20T16:14:19;15;13;
62846;PMS5003;49477;35.676;139.586;2023-07-20T16:16:48;9;9;
62846;PMS5003;49477;35.676;139.586;2023-07-20T16:19:18;10;8;
62846;PMS5003;49477;35.676;139.586;2023-07-20T16:21:47;9;9;
62846;PMS5003;49477;35.676;139.586;2023-07-20T16:24:17;12;10;
62846;PMS5003;49477;35.676;139.586;2023-07-20T16:26:47;10;10;
62846;PMS5003;49477;35.676;139.586;2023-07-20T16:29:17;14;11;
62846;PMS5003;49477;35.676;139.586;2023-07-20T16:31:48;11;10;
62846;PMS5003;49477;35.676;139.586;2023-07-20T16:34:18;13;13;
62846;PMS5003;49477;35.676;139.586;2023-07-20T16:36:47;13;11;
62846;PMS5003;49477;35.676;139.586;2023-07-20T16:39:17;15;12;